Puget — AEQW — position and weather

sailwx.info

Track history (hours):
 
Tides and Currents Weather Stations Pressure Air Temp Water Temp Dewpoint Dewpoint Depression Visibility Wind Speed Wind Dir Waves Ship Positions

Puget

Last reported at 2016-Aug-18 22:13 UTC. Time now 2016-Aug-29 23:31 UTC.
Position N 47°40' W 122°24'.
Warning: this ship's position is 11 days out of date.

Length 20 m; draft 0.2 m.

Type: Ship. MMSI: 369970510.

Date/timePositionNaut miles runAvg speedWind from/ knotsBaromVisibWave heightAir tempDewpointWater temp
2016-Aug-18 22:13N 47°40' W 122°24'0 0.3
2016-Aug-18 21:33N 47°40' W 122°23'0 0.2
2016-Aug-18 20:33N 47°40' W 122°24'4 3.6
2016-Aug-18 19:33N 47°43' W 122°25'10 9.9
2016-Aug-18 18:33N 47°53' W 122°22'35 0.8
2016-Aug-16 23:32N 48°28' W 122°31'10 8.4
2016-Aug-16 22:20N 48°37' W 122°38'12 1.7
2016-Aug-16 15:26N 48°26' W 122°30'12 0.7
2016-Aug-15 21:20N 48°14' W 122°33'15 7.5
2016-Aug-15 19:19N 48°01' W 122°21'6 8.0
2016-Aug-15 18:33N 47°55' W 122°21'5 4.9
2016-Aug-15 17:33N 47°50' W 122°23'6 6.4
2016-Aug-15 16:33N 47°44' W 122°25'4 4.2
2016-Aug-15 15:33N 47°40' W 122°24'  
2016-Aug-11 23:21N 47°40' W 122°24'2 2.2
2016-Aug-11 22:33N 47°41' W 122°26'7 1.7
2016-Aug-11 18:16N 47°37' W 122°35'5 6.5
2016-Aug-11 17:32N 47°34' W 122°30'6 6.7
2016-Aug-11 16:33N 47°40' W 122°26'2 1.8
2016-Aug-11 15:33N 47°40' W 122°24'0 0.0
2016-Aug-11 14:33N 47°40' W 122°24'  
2016-Aug-08 23:32N 47°39' W 122°22'  
Track history (hours):
 
Tides and Currents Weather Stations Pressure Air Temp Water Temp Dewpoint Dewpoint Depression Visibility Wind Speed Wind Dir Waves Ship Positions

Puget

Last reported at 2016-Aug-18 22:13 UTC. Time now 2016-Aug-29 23:31 UTC.
Position N 47°40' W 122°24'.
Warning: this ship's position is 11 days out of date.

Length 20 m; draft 0.2 m.

Type: Ship. MMSI: 369970510.

Date/timePositionNaut miles runAvg speedWind from/ knotsBaromVisibWave heightAir tempDewpointWater temp
2016-Aug-18 22:13N 47°40' W 122°24'0 0.3
2016-Aug-18 21:33N 47°40' W 122°23'0 0.2
2016-Aug-18 20:33N 47°40' W 122°24'4 3.6
2016-Aug-18 19:33N 47°43' W 122°25'10 9.9
2016-Aug-18 18:33N 47°53' W 122°22'35 0.8
2016-Aug-16 23:32N 48°28' W 122°31'10 8.4
2016-Aug-16 22:20N 48°37' W 122°38'12 1.7
2016-Aug-16 15:26N 48°26' W 122°30'12 0.7
2016-Aug-15 21:20N 48°14' W 122°33'15 7.5
2016-Aug-15 19:19N 48°01' W 122°21'6 8.0
2016-Aug-15 18:33N 47°55' W 122°21'5 4.9
2016-Aug-15 17:33N 47°50' W 122°23'6 6.4
2016-Aug-15 16:33N 47°44' W 122°25'4 4.2
2016-Aug-15 15:33N 47°40' W 122°24'  
2016-Aug-11 23:21N 47°40' W 122°24'2 2.2
2016-Aug-11 22:33N 47°41' W 122°26'7 1.7
2016-Aug-11 18:16N 47°37' W 122°35'5 6.5
2016-Aug-11 17:32N 47°34' W 122°30'6 6.7
2016-Aug-11 16:33N 47°40' W 122°26'2 1.8
2016-Aug-11 15:33N 47°40' W 122°24'0 0.0
2016-Aug-11 14:33N 47°40' W 122°24'  
2016-Aug-08 23:32N 47°39' W 122°22'  

Dump ship's entire track history